METAR Data
IDs: Format: Raw Decoded Include TAF

Data at: 0735 UTC 01 Aug 2021

LECV 010730Z VRB02KT 9999 FEW025 16/08 Q1019